createdAt,value
2023-04-09T00:02:14.368Z,65.50
2023-04-09T00:04:41.203Z,65.20
2023-04-09T00:07:08.075Z,65.00
2023-04-09T00:09:34.800Z,65.00
2023-04-09T00:12:02.064Z,65.00
2023-04-09T00:14:29.157Z,65.00
2023-04-09T00:16:56.098Z,65.00
2023-04-09T00:19:22.893Z,65.00
2023-04-09T00:21:49.634Z,65.30
2023-04-09T00:24:16.278Z,65.20
2023-04-09T00:26:42.931Z,65.10
2023-04-09T00:29:09.623Z,65.20
2023-04-09T00:31:36.282Z,65.00
2023-04-09T00:34:02.996Z,65.00
2023-04-09T00:36:29.702Z,65.20
2023-04-09T00:38:56.698Z,65.30
2023-04-09T00:41:23.396Z,65.10
2023-04-09T00:43:50.225Z,65.30
2023-04-09T00:46:17.928Z,65.30
2023-04-09T00:48:44.949Z,66.00
2023-04-09T00:51:11.576Z,65.30
2023-04-09T00:53:38.389Z,65.30
2023-04-09T00:56:06.661Z,65.30
2023-04-09T00:58:33.839Z,66.20
2023-04-09T01:01:00.662Z,65.90
2023-04-09T01:03:27.599Z,65.50
2023-04-09T01:06:05.821Z,65.80
2023-04-09T01:08:32.609Z,67.60
2023-04-09T01:11:37.280Z,65.40
2023-04-09T01:14:19.660Z,67.50
2023-04-09T01:16:52.872Z,67.50
2023-04-09T01:19:34.717Z,67.10
2023-04-09T01:22:04.284Z,67.40
2023-04-09T01:25:03.456Z,66.80
2023-04-09T01:28:02.877Z,67.90
2023-04-09T01:30:30.358Z,67.40
2023-04-09T01:32:58.809Z,66.30
2023-04-09T01:35:26.372Z,66.70
2023-04-09T01:37:54.859Z,66.20
2023-04-09T01:40:21.563Z,66.80
2023-04-09T01:42:49.771Z,65.40
2023-04-09T01:45:17.253Z,66.60
2023-04-09T01:47:44.628Z,66.40
2023-04-09T01:50:11.436Z,66.40
2023-04-09T01:52:39.287Z,65.70
2023-04-09T01:55:06.701Z,66.10
2023-04-09T01:57:33.406Z,65.90
2023-04-09T02:00:00.255Z,65.70
2023-04-09T02:02:55.172Z,66.20
2023-04-09T02:05:27.094Z,67.30
2023-04-09T02:07:57.084Z,67.50
2023-04-09T02:10:26.988Z,67.20
2023-04-09T02:12:55.482Z,67.10
2023-04-09T02:15:23.282Z,67.00
2023-04-09T02:17:50.431Z,66.40
2023-04-09T02:20:20.198Z,67.50
2023-04-09T02:22:46.985Z,67.90
2023-04-09T02:25:14.023Z,66.10
2023-04-09T02:27:40.874Z,66.20
2023-04-09T02:30:08.183Z,66.20
2023-04-09T02:32:34.879Z,66.50
2023-04-09T02:35:01.635Z,66.10
2023-04-09T02:37:28.285Z,66.10
2023-04-09T02:39:55.181Z,65.90
2023-04-09T02:42:21.925Z,65.80
2023-04-09T02:44:48.843Z,65.90
2023-04-09T02:47:15.573Z,65.80
2023-04-09T02:49:42.285Z,65.90
2023-04-09T02:52:10.666Z,66.40
2023-04-09T02:54:37.352Z,67.70
2023-04-09T02:57:04.043Z,66.60
2023-04-09T02:59:32.828Z,66.70
2023-04-09T03:01:59.647Z,66.70
2023-04-09T03:04:26.516Z,66.40
2023-04-09T03:06:53.306Z,66.30
2023-04-09T03:09:20.000Z,66.40
2023-04-09T03:11:46.664Z,66.60
2023-04-09T03:14:13.380Z,66.70
2023-04-09T03:16:40.161Z,66.80
2023-04-09T03:19:06.899Z,67.00
2023-04-09T03:21:33.590Z,67.60
2023-04-09T03:24:00.305Z,66.50
2023-04-09T03:26:27.746Z,66.50
2023-04-09T03:28:54.811Z,66.40
2023-04-09T03:31:21.732Z,66.30
2023-04-09T03:33:48.395Z,66.30
2023-04-09T03:36:15.467Z,66.30
2023-04-09T03:38:54.196Z,66.30
2023-04-09T03:41:26.942Z,66.00
2023-04-09T03:43:54.448Z,66.70
2023-04-09T03:46:25.911Z,66.20
2023-04-09T03:48:52.965Z,66.20
2023-04-09T03:51:20.080Z,66.10
2023-04-09T03:53:52.883Z,66.20
2023-04-09T03:56:19.787Z,65.50
2023-04-09T03:58:48.353Z,66.10
2023-04-09T04:01:16.432Z,66.20
2023-04-09T04:03:53.590Z,66.30
2023-04-09T04:06:35.486Z,66.20
2023-04-09T04:09:20.634Z,67.60
2023-04-09T04:12:02.118Z,66.20
2023-04-09T04:14:43.203Z,67.00
2023-04-09T04:17:20.660Z,66.30
2023-04-09T04:19:48.322Z,66.30
2023-04-09T04:22:15.009Z,66.30
2023-04-09T04:24:45.218Z,66.30
2023-04-09T04:27:16.720Z,66.40
2023-04-09T04:29:44.245Z,66.40
2023-04-09T04:32:40.144Z,66.30
2023-04-09T04:35:10.368Z,66.30
2023-04-09T04:37:37.827Z,66.30
2023-04-09T04:40:05.437Z,66.20
2023-04-09T04:42:35.727Z,66.40
2023-04-09T04:45:09.619Z,66.90
2023-04-09T04:47:59.180Z,66.70
2023-04-09T04:50:25.979Z,66.40
2023-04-09T04:53:02.864Z,66.30
2023-04-09T04:55:37.330Z,66.20
2023-04-09T04:58:04.418Z,67.90
2023-04-09T05:00:40.794Z,66.00
2023-04-09T05:03:07.918Z,65.90
2023-04-09T05:05:57.190Z,65.70
2023-04-09T05:08:27.453Z,65.60
2023-04-09T05:10:56.303Z,65.70
2023-04-09T05:13:28.600Z,65.90
2023-04-09T05:15:56.299Z,65.60
2023-04-09T05:18:23.570Z,66.00
2023-04-09T05:20:50.391Z,66.10
2023-04-09T05:23:17.868Z,65.80
2023-04-09T05:25:51.033Z,65.90
2023-04-09T05:28:26.062Z,67.80
2023-04-09T05:31:03.396Z,66.00
2023-04-09T05:33:37.688Z,65.90
2023-04-09T05:36:08.836Z,65.80
2023-04-09T05:38:35.776Z,65.90
2023-04-09T05:41:02.579Z,65.90
2023-04-09T05:43:29.505Z,66.00
2023-04-09T05:45:56.441Z,65.60
2023-04-09T05:48:23.866Z,65.80
2023-04-09T05:50:55.817Z,65.70
2023-04-09T05:53:25.618Z,65.80
2023-04-09T05:55:52.438Z,65.40
2023-04-09T05:58:23.239Z,65.40
2023-04-09T06:00:51.856Z,65.50
2023-04-09T06:03:18.860Z,65.10
2023-04-09T06:05:46.667Z,65.10
2023-04-09T06:08:14.108Z,65.70
2023-04-09T06:10:41.498Z,64.90
2023-04-09T06:13:09.656Z,64.90
2023-04-09T06:15:38.622Z,64.80
2023-04-09T06:18:05.422Z,66.00
2023-04-09T06:20:32.446Z,64.60
2023-04-09T06:22:59.219Z,64.60
2023-04-09T06:25:26.038Z,64.40
2023-04-09T06:27:52.691Z,64.30
2023-04-09T06:30:19.341Z,64.60
2023-04-09T06:32:54.613Z,64.20
2023-04-09T06:35:22.093Z,64.20
2023-04-09T06:37:48.790Z,64.50
2023-04-09T06:40:15.461Z,64.30
2023-04-09T06:42:42.120Z,64.00
2023-04-09T06:45:19.841Z,64.40
2023-04-09T06:47:46.546Z,63.80
2023-04-09T06:50:13.279Z,63.60
2023-04-09T06:52:40.046Z,63.50
2023-04-09T06:55:07.067Z,64.30
2023-04-09T06:57:33.744Z,63.40
2023-04-09T07:00:00.572Z,63.30
2023-04-09T07:02:27.690Z,63.20
2023-04-09T07:04:54.654Z,63.20
2023-04-09T07:07:23.260Z,63.70
2023-04-09T07:09:52.605Z,63.10
2023-04-09T07:12:28.256Z,62.80
2023-04-09T07:14:58.637Z,64.70
2023-04-09T07:17:25.651Z,63.60
2023-04-09T07:19:52.385Z,62.00
2023-04-09T07:22:19.033Z,61.00
2023-04-09T07:24:46.732Z,60.60
2023-04-09T07:27:13.814Z,60.20
2023-04-09T07:29:44.548Z,60.20
2023-04-09T07:32:11.480Z,61.80
2023-04-09T07:34:38.186Z,60.00
2023-04-09T07:37:05.481Z,59.80
2023-04-09T07:39:32.254Z,59.40
2023-04-09T07:42:02.695Z,58.70
2023-04-09T07:44:29.391Z,57.90
2023-04-09T07:46:56.516Z,57.40
2023-04-09T07:49:23.304Z,56.90
2023-04-09T07:51:50.166Z,56.80
2023-04-09T07:54:16.851Z,56.40
2023-04-09T07:56:43.626Z,56.30
2023-04-09T07:59:11.018Z,56.40
2023-04-09T08:01:37.749Z,56.30
2023-04-09T08:04:04.739Z,56.80
2023-04-09T08:06:31.849Z,57.10
2023-04-09T08:08:58.567Z,56.80
2023-04-09T08:11:25.982Z,57.00
2023-04-09T08:13:53.006Z,56.80
2023-04-09T08:16:21.253Z,57.20
2023-04-09T08:18:47.980Z,57.10
2023-04-09T08:21:14.733Z,56.70
2023-04-09T08:23:41.453Z,56.80
2023-04-09T08:26:08.164Z,56.80
2023-04-09T08:28:34.800Z,56.80
2023-04-09T08:31:02.030Z,56.80
2023-04-09T08:33:29.107Z,56.70
2023-04-09T08:35:55.801Z,56.50
2023-04-09T08:38:22.670Z,56.50
2023-04-09T08:40:49.373Z,56.40
2023-04-09T08:43:17.944Z,56.20
2023-04-09T08:45:44.697Z,57.10
2023-04-09T08:48:13.648Z,56.40
2023-04-09T08:50:40.700Z,57.60
2023-04-09T08:53:09.529Z,56.10
2023-04-09T08:55:37.345Z,56.80
2023-04-09T08:58:07.534Z,55.60
2023-04-09T09:00:34.272Z,57.00
2023-04-09T09:03:13.156Z,54.80
2023-04-09T09:05:41.011Z,55.20
2023-04-09T09:08:23.236Z,55.10
2023-04-09T09:10:50.329Z,56.50
2023-04-09T09:13:27.592Z,54.70
2023-04-09T09:16:11.398Z,56.70
2023-04-09T09:18:40.317Z,56.20
2023-04-09T09:21:10.553Z,56.20
2023-04-09T09:23:37.823Z,57.10
2023-04-09T09:26:16.521Z,55.70
2023-04-09T09:28:43.567Z,57.90
2023-04-09T09:31:11.931Z,55.70
2023-04-09T09:33:39.627Z,56.40
2023-04-09T09:36:09.156Z,56.10
2023-04-09T09:38:55.657Z,55.60
2023-04-09T09:41:23.340Z,56.60
2023-04-09T09:43:50.799Z,55.20
2023-04-09T09:46:17.769Z,55.10
2023-04-09T09:48:49.598Z,54.80
2023-04-09T09:51:16.729Z,55.70
2023-04-09T09:53:46.604Z,54.50
2023-04-09T09:56:22.286Z,55.10
2023-04-09T09:59:19.805Z,55.90
2023-04-09T10:01:48.176Z,56.50
2023-04-09T10:04:16.385Z,54.60
2023-04-09T10:06:47.688Z,54.10
2023-04-09T10:09:15.521Z,54.90
2023-04-09T10:11:47.829Z,53.00
2023-04-09T10:14:16.292Z,52.70
2023-04-09T10:16:43.472Z,53.50
2023-04-09T10:19:14.157Z,53.10
2023-04-09T10:21:44.641Z,52.70
2023-04-09T10:24:11.749Z,54.10
2023-04-09T10:26:41.635Z,53.00
2023-04-09T10:29:16.404Z,54.20
2023-04-09T10:32:05.625Z,54.40
2023-04-09T10:34:37.674Z,54.40
2023-04-09T10:37:06.590Z,53.30
2023-04-09T10:39:33.745Z,52.10
2023-04-09T10:42:06.778Z,52.10
2023-04-09T10:44:35.731Z,52.80
2023-04-09T10:47:03.957Z,51.60
2023-04-09T10:49:38.107Z,52.40
2023-04-09T10:52:13.605Z,51.70
2023-04-09T10:54:46.114Z,51.50
2023-04-09T10:57:23.000Z,50.40
2023-04-09T10:59:54.490Z,51.70
2023-04-09T11:02:39.436Z,51.10
2023-04-09T11:05:19.936Z,48.70
2023-04-09T11:08:05.108Z,50.20
2023-04-09T11:10:35.629Z,50.10
2023-04-09T11:13:03.520Z,49.20
2023-04-09T11:15:32.160Z,48.10
2023-04-09T11:17:59.067Z,47.80
2023-04-09T11:20:26.729Z,47.00
2023-04-09T11:22:55.744Z,47.10
2023-04-09T11:25:24.212Z,46.90
2023-04-09T11:27:51.172Z,46.70
2023-04-09T11:30:18.086Z,46.50
2023-04-09T11:32:45.450Z,46.00
2023-04-09T11:35:14.220Z,46.20
2023-04-09T11:37:42.237Z,46.30
2023-04-09T11:40:22.603Z,45.90
2023-04-09T11:42:51.429Z,45.50
2023-04-09T11:45:19.545Z,44.80
2023-04-09T11:47:47.282Z,45.10
2023-04-09T11:50:15.639Z,45.20
2023-04-09T11:52:44.632Z,44.40
2023-04-09T11:55:11.678Z,43.50
2023-04-09T11:57:46.873Z,42.70
2023-04-09T12:00:15.345Z,42.90
2023-04-09T12:02:46.205Z,41.80
2023-04-09T12:05:28.598Z,41.40
2023-04-09T12:08:03.040Z,41.50
2023-04-09T12:10:33.680Z,42.10
2023-04-09T12:13:05.373Z,42.20
2023-04-09T12:15:34.391Z,42.30
2023-04-09T12:18:01.531Z,41.80
2023-04-09T12:20:31.203Z,41.50
2023-04-09T12:23:00.197Z,41.00
2023-04-09T12:25:27.621Z,41.50
2023-04-09T12:27:56.053Z,41.30
2023-04-09T12:30:24.053Z,40.90
2023-04-09T12:32:51.801Z,40.90
2023-04-09T12:35:18.627Z,40.20
2023-04-09T12:37:45.367Z,39.40
2023-04-09T12:40:15.435Z,39.40
2023-04-09T12:42:43.907Z,38.90
2023-04-09T12:45:12.371Z,38.80
2023-04-09T12:47:39.855Z,39.10
2023-04-09T12:50:08.323Z,39.80
2023-04-09T12:52:35.592Z,38.90
2023-04-09T12:55:03.132Z,37.90
2023-04-09T12:57:30.332Z,37.40
2023-04-09T12:59:57.293Z,37.40
2023-04-09T13:02:24.391Z,37.10
2023-04-09T13:04:52.790Z,36.00
2023-04-09T13:07:20.839Z,35.60
2023-04-09T13:09:51.198Z,36.90
2023-04-09T13:12:18.027Z,36.30
2023-04-09T13:14:47.252Z,36.50
2023-04-09T13:17:15.131Z,37.20
2023-04-09T13:19:42.817Z,37.60
2023-04-09T13:22:10.349Z,38.10
2023-04-09T13:24:37.813Z,37.10
2023-04-09T13:27:05.659Z,36.50
2023-04-09T13:29:32.419Z,36.40
2023-04-09T13:32:01.599Z,36.30
2023-04-09T13:34:28.544Z,36.00
2023-04-09T13:36:55.320Z,35.00
2023-04-09T13:39:22.003Z,35.30
2023-04-09T13:41:48.768Z,35.50
2023-04-09T13:44:15.625Z,34.70
2023-04-09T13:46:42.374Z,34.60
2023-04-09T13:49:09.152Z,34.10
2023-04-09T13:51:35.970Z,33.70
2023-04-09T13:54:05.316Z,33.40
2023-04-09T13:56:32.738Z,33.30
2023-04-09T13:58:59.422Z,33.20
2023-04-09T14:01:28.248Z,33.30
2023-04-09T14:03:55.785Z,33.10
2023-04-09T14:06:22.933Z,32.60
2023-04-09T14:08:49.651Z,32.80
2023-04-09T14:11:16.731Z,32.70
2023-04-09T14:13:43.566Z,32.40
2023-04-09T14:16:10.638Z,32.50
2023-04-09T14:18:37.422Z,32.20
2023-04-09T14:21:04.325Z,32.00
2023-04-09T14:23:31.034Z,31.80
2023-04-09T14:25:57.857Z,31.60
2023-04-09T14:28:24.566Z,32.10
2023-04-09T14:30:51.310Z,32.00
2023-04-09T14:33:18.143Z,32.10
2023-04-09T14:35:44.815Z,32.20
2023-04-09T14:38:11.615Z,31.90
2023-04-09T14:40:38.264Z,31.70
2023-04-09T14:43:04.991Z,31.40
2023-04-09T14:45:32.298Z,31.50
2023-04-09T14:47:58.998Z,31.70
2023-04-09T14:50:25.731Z,32.40
2023-04-09T14:52:52.612Z,31.90
2023-04-09T14:55:19.642Z,32.50
2023-04-09T14:57:46.699Z,32.10
2023-04-09T15:00:13.845Z,32.10
2023-04-09T15:02:41.475Z,31.70
2023-04-09T15:05:09.003Z,31.80
2023-04-09T15:07:35.894Z,32.00
2023-04-09T15:10:02.769Z,31.90
2023-04-09T15:12:31.390Z,31.90
2023-04-09T15:14:58.188Z,32.00
2023-04-09T15:17:26.099Z,31.90
2023-04-09T15:19:54.132Z,32.10
2023-04-09T15:22:21.333Z,32.10
2023-04-09T15:24:48.000Z,31.90
2023-04-09T15:27:14.665Z,31.10
2023-04-09T15:29:41.391Z,31.60
2023-04-09T15:32:08.324Z,31.70
2023-04-09T15:34:35.322Z,32.10
2023-04-09T15:37:02.018Z,32.20
2023-04-09T15:39:28.790Z,32.10
2023-04-09T15:41:58.888Z,32.00
2023-04-09T15:44:26.110Z,32.20
2023-04-09T15:46:53.014Z,32.00
2023-04-09T15:49:20.208Z,31.30
2023-04-09T15:51:47.034Z,31.00
2023-04-09T15:54:13.836Z,31.00
2023-04-09T15:56:40.609Z,31.10
2023-04-09T15:59:08.316Z,31.30
2023-04-09T16:01:36.270Z,31.30
2023-04-09T16:04:04.611Z,31.30
2023-04-09T16:06:31.709Z,31.20
2023-04-09T16:08:58.419Z,31.00
2023-04-09T16:11:25.823Z,31.60
2023-04-09T16:13:52.511Z,31.20
2023-04-09T16:16:19.623Z,31.30
2023-04-09T16:18:46.339Z,31.50
2023-04-09T16:21:13.091Z,31.50
2023-04-09T16:23:39.912Z,31.80
2023-04-09T16:26:07.141Z,31.80
2023-04-09T16:28:33.894Z,32.90
2023-04-09T16:31:00.811Z,31.50
2023-04-09T16:33:27.703Z,32.00
2023-04-09T16:35:54.410Z,32.00
2023-04-09T16:38:21.074Z,32.70
2023-04-09T16:40:47.872Z,32.70
2023-04-09T16:43:14.521Z,32.70
2023-04-09T16:45:41.193Z,33.00
2023-04-09T16:48:12.041Z,33.40
2023-04-09T16:50:40.243Z,33.70
2023-04-09T16:53:08.749Z,34.30
2023-04-09T16:55:35.612Z,35.50
2023-04-09T16:58:02.360Z,35.60
2023-04-09T17:00:29.129Z,35.90
2023-04-09T17:02:57.580Z,36.20
2023-04-09T17:05:24.923Z,36.50
2023-04-09T17:07:53.443Z,37.00
2023-04-09T17:10:20.763Z,37.20
2023-04-09T17:12:48.063Z,37.30
2023-04-09T17:15:14.842Z,37.70
2023-04-09T17:17:41.664Z,38.40
2023-04-09T17:20:08.787Z,38.20
2023-04-09T17:22:35.642Z,38.30
2023-04-09T17:25:02.550Z,38.60
2023-04-09T17:27:29.269Z,38.80
2023-04-09T17:29:56.349Z,39.20
2023-04-09T17:32:23.102Z,39.90
2023-04-09T17:34:49.828Z,39.50
2023-04-09T17:37:16.810Z,39.40
2023-04-09T17:39:43.453Z,39.40
2023-04-09T17:42:12.038Z,39.60
2023-04-09T17:44:38.932Z,39.80
2023-04-09T17:47:07.370Z,39.80
2023-04-09T17:49:34.397Z,41.10
2023-04-09T17:52:01.468Z,40.20
2023-04-09T17:54:34.395Z,40.40
2023-04-09T17:57:04.008Z,41.10
2023-04-09T17:59:32.124Z,41.10
2023-04-09T18:01:59.090Z,41.00
2023-04-09T18:04:27.037Z,41.10
2023-04-09T18:06:54.791Z,41.40
2023-04-09T18:09:21.890Z,41.40
2023-04-09T18:11:48.990Z,41.50
2023-04-09T18:14:15.818Z,41.80
2023-04-09T18:16:42.615Z,42.40
2023-04-09T18:19:10.113Z,42.80
2023-04-09T18:21:36.932Z,42.90
2023-04-09T18:24:04.572Z,43.60
2023-04-09T18:26:33.291Z,43.90
2023-04-09T18:29:01.181Z,44.20
2023-04-09T18:31:28.573Z,44.60
2023-04-09T18:33:56.078Z,45.00
2023-04-09T18:36:22.767Z,45.20
2023-04-09T18:38:49.444Z,45.50
2023-04-09T18:41:26.732Z,46.00
2023-04-09T18:43:54.126Z,47.60
2023-04-09T18:46:20.863Z,46.70
2023-04-09T18:48:47.605Z,47.10
2023-04-09T18:51:14.773Z,47.10
2023-04-09T18:53:41.878Z,47.60
2023-04-09T18:56:08.804Z,47.60
2023-04-09T18:58:36.199Z,47.80
2023-04-09T19:01:12.732Z,48.00
2023-04-09T19:03:40.313Z,49.60
2023-04-09T19:06:15.682Z,48.30
2023-04-09T19:08:42.384Z,49.60
2023-04-09T19:11:09.140Z,48.30
2023-04-09T19:13:37.490Z,48.70
2023-04-09T19:16:06.187Z,49.70
2023-04-09T19:18:34.262Z,49.40
2023-04-09T19:21:01.090Z,50.10
2023-04-09T19:23:27.956Z,50.00
2023-04-09T19:25:55.665Z,50.60
2023-04-09T19:28:22.982Z,51.50
2023-04-09T19:30:52.435Z,51.30
2023-04-09T19:33:26.988Z,51.40
2023-04-09T19:35:55.519Z,52.80
2023-04-09T19:38:22.581Z,52.30
2023-04-09T19:40:49.576Z,51.50
2023-04-09T19:43:16.431Z,51.70
2023-04-09T19:45:43.520Z,51.50
2023-04-09T19:48:10.307Z,51.70
2023-04-09T19:50:38.405Z,51.70
2023-04-09T19:53:06.002Z,52.30
2023-04-09T19:55:36.273Z,52.70
2023-04-09T19:58:03.670Z,54.10
2023-04-09T20:00:31.989Z,53.20
2023-04-09T20:02:58.934Z,53.50
2023-04-09T20:05:26.064Z,53.20
2023-04-09T20:07:52.991Z,53.40
2023-04-09T20:10:19.998Z,53.60
2023-04-09T20:12:47.914Z,54.20
2023-04-09T20:15:15.321Z,54.90
2023-04-09T20:17:42.580Z,54.70
2023-04-09T20:20:09.627Z,54.40
2023-04-09T20:22:36.410Z,54.50
2023-04-09T20:25:03.102Z,54.40
2023-04-09T20:27:29.789Z,54.50
2023-04-09T20:29:56.471Z,54.50
2023-04-09T20:32:23.210Z,54.30
2023-04-09T20:34:49.950Z,54.40
2023-04-09T20:37:16.615Z,54.20
2023-04-09T20:39:43.310Z,54.20
2023-04-09T20:42:09.937Z,54.50
2023-04-09T20:44:36.592Z,54.60
2023-04-09T20:47:03.441Z,54.80
2023-04-09T20:49:30.110Z,55.00
2023-04-09T20:51:56.838Z,55.60
2023-04-09T20:54:23.566Z,55.40
2023-04-09T20:56:51.201Z,55.40
2023-04-09T20:59:19.139Z,55.70
2023-04-09T21:01:46.049Z,56.80
2023-04-09T21:04:13.020Z,55.90
2023-04-09T21:06:40.354Z,56.00
2023-04-09T21:09:07.168Z,56.20
2023-04-09T21:11:33.940Z,55.70
2023-04-09T21:14:00.661Z,56.20
2023-04-09T21:16:29.637Z,56.30
2023-04-09T21:18:56.508Z,56.20
2023-04-09T21:21:23.507Z,56.10
2023-04-09T21:23:50.313Z,55.70
2023-04-09T21:26:17.026Z,55.30
2023-04-09T21:28:44.290Z,55.60
2023-04-09T21:31:11.454Z,56.60
2023-04-09T21:33:39.089Z,56.10
2023-04-09T21:36:07.630Z,55.80
2023-04-09T21:38:34.632Z,56.00
2023-04-09T21:41:01.690Z,56.00
2023-04-09T21:43:29.089Z,56.20
2023-04-09T21:45:59.506Z,56.50
2023-04-09T21:48:30.497Z,58.40
2023-04-09T21:50:58.324Z,56.20
2023-04-09T21:53:25.064Z,57.60
2023-04-09T21:55:51.791Z,56.70
2023-04-09T21:58:18.550Z,56.90
2023-04-09T22:00:45.419Z,56.90
2023-04-09T22:03:12.475Z,58.10
2023-04-09T22:05:39.349Z,57.20
2023-04-09T22:08:06.136Z,57.40
2023-04-09T22:10:32.910Z,57.40
2023-04-09T22:12:59.570Z,57.70
2023-04-09T22:15:26.317Z,58.00
2023-04-09T22:17:53.027Z,58.40
2023-04-09T22:20:19.805Z,58.50
2023-04-09T22:22:48.145Z,58.50
2023-04-09T22:25:16.349Z,58.30
2023-04-09T22:27:43.772Z,58.50
2023-04-09T22:30:10.713Z,58.30
2023-04-09T22:32:37.436Z,58.20
2023-04-09T22:35:04.372Z,58.00
2023-04-09T22:37:31.478Z,58.10
2023-04-09T22:39:58.159Z,58.20
2023-04-09T22:42:25.587Z,58.50
2023-04-09T22:44:53.772Z,58.70
2023-04-09T22:47:20.607Z,58.80
2023-04-09T22:49:47.438Z,58.90
2023-04-09T22:52:14.131Z,58.80
2023-04-09T22:54:43.031Z,58.80
2023-04-09T22:57:09.713Z,58.90
2023-04-09T22:59:40.352Z,58.80
2023-04-09T23:02:07.975Z,58.90
2023-04-09T23:04:35.034Z,59.10
2023-04-09T23:07:02.376Z,58.80
2023-04-09T23:09:30.818Z,58.80
2023-04-09T23:11:57.888Z,59.00
2023-04-09T23:14:24.590Z,59.10
2023-04-09T23:16:51.285Z,58.60
2023-04-09T23:19:17.928Z,59.10
2023-04-09T23:21:44.602Z,59.10
2023-04-09T23:24:11.317Z,59.00
2023-04-09T23:26:37.965Z,58.90
2023-04-09T23:29:04.660Z,59.00
2023-04-09T23:31:31.402Z,59.30
2023-04-09T23:33:58.192Z,58.80
2023-04-09T23:36:24.950Z,58.40
2023-04-09T23:38:51.659Z,58.10
2023-04-09T23:41:18.380Z,57.80
2023-04-09T23:43:45.812Z,57.60
2023-04-09T23:46:12.512Z,57.50
2023-04-09T23:48:40.286Z,57.30
2023-04-09T23:51:07.027Z,58.10
2023-04-09T23:53:33.654Z,56.90
2023-04-09T23:56:00.663Z,56.70
2023-04-09T23:58:27.457Z,56.40
